createdAt,value
2019-03-25T00:04:15.151Z,65.79
2019-03-25T00:09:25.937Z,65.74
2019-03-25T00:14:33.880Z,66.11
2019-03-25T00:19:43.238Z,65.52
2019-03-25T00:24:52.689Z,64.79
2019-03-25T00:30:00.750Z,64.49
2019-03-25T00:35:09.913Z,63.62
2019-03-25T00:40:17.728Z,62.58
2019-03-25T00:45:32.435Z,61.85
2019-03-25T00:50:40.909Z,61.06
2019-03-25T00:55:50.663Z,59.95
2019-03-25T01:01:01.158Z,57.77
2019-03-25T01:06:09.277Z,57.57
2019-03-25T01:11:17.441Z,57.08
2019-03-25T01:16:25.053Z,56.73
2019-03-25T01:21:34.695Z,56.70
2019-03-25T01:26:44.328Z,55.83
2019-03-25T01:31:51.951Z,55.50
2019-03-25T01:37:03.003Z,56.12
2019-03-25T01:42:11.658Z,56.00
2019-03-25T01:47:19.352Z,56.43
2019-03-25T01:52:28.063Z,56.19
2019-03-25T01:57:39.052Z,56.24
2019-03-25T02:02:47.103Z,56.62
2019-03-25T02:07:55.303Z,56.00
2019-03-25T02:13:07.402Z,55.12
2019-03-25T02:18:15.091Z,55.28
2019-03-25T02:23:23.358Z,55.54
2019-03-25T02:28:31.118Z,55.97
2019-03-25T02:33:38.672Z,56.25
2019-03-25T02:38:50.160Z,56.19
2019-03-25T02:43:58.163Z,56.24
2019-03-25T02:49:06.280Z,56.01
2019-03-25T02:54:14.263Z,56.22
2019-03-25T02:59:24.671Z,55.52
2019-03-25T03:04:32.888Z,56.21
2019-03-25T03:09:40.865Z,56.77
2019-03-25T03:14:49.015Z,55.81
2019-03-25T03:19:56.659Z,55.91
2019-03-25T03:25:05.128Z,55.20
2019-03-25T03:30:13.154Z,55.36
2019-03-25T03:35:21.084Z,55.91
2019-03-25T03:40:29.703Z,55.67
2019-03-25T03:45:39.728Z,55.05
2019-03-25T03:50:47.676Z,54.90
2019-03-25T03:56:11.516Z,56.43
2019-03-25T04:01:05.736Z,55.90
2019-03-25T04:06:13.390Z,55.64
2019-03-25T04:11:23.473Z,55.39
2019-03-25T04:16:32.975Z,55.83
2019-03-25T04:21:43.069Z,56.99
2019-03-25T04:26:51.081Z,56.17
2019-03-25T04:31:58.923Z,56.14
2019-03-25T04:37:06.655Z,56.34
2019-03-25T04:42:15.520Z,56.75
2019-03-25T04:47:23.336Z,57.87
2019-03-25T04:52:30.952Z,58.30
2019-03-25T04:57:38.799Z,58.21
2019-03-25T05:02:46.425Z,58.15
2019-03-25T05:07:54.204Z,58.03
2019-03-25T05:13:05.273Z,57.82
2019-03-25T05:18:13.735Z,58.10
2019-03-25T05:23:22.955Z,57.76
2019-03-25T05:28:31.106Z,57.58
2019-03-25T05:33:40.985Z,56.62
2019-03-25T05:38:48.861Z,56.48
2019-03-25T05:44:02.712Z,56.12
2019-03-25T05:49:11.203Z,55.80
2019-03-25T05:54:22.377Z,54.19
2019-03-25T05:59:34.989Z,52.94
2019-03-25T06:04:48.376Z,51.95
2019-03-25T06:09:56.475Z,52.90
2019-03-25T06:15:09.287Z,54.16
2019-03-25T06:20:19.841Z,53.98
2019-03-25T06:25:29.322Z,50.98
2019-03-25T06:30:38.335Z,49.80
2019-03-25T06:35:47.581Z,48.73
2019-03-25T06:40:55.475Z,48.06
2019-03-25T06:46:06.036Z,49.10
2019-03-25T06:51:14.685Z,48.04
2019-03-25T06:56:22.622Z,49.26
2019-03-25T07:01:31.605Z,49.74
2019-03-25T07:06:46.798Z,49.76
2019-03-25T07:11:58.149Z,51.03
2019-03-25T07:17:06.627Z,50.72
2019-03-25T07:22:14.987Z,50.47
2019-03-25T07:27:23.898Z,50.12
2019-03-25T07:32:31.927Z,50.61
2019-03-25T07:37:40.989Z,50.98
2019-03-25T07:42:48.938Z,56.77
2019-03-25T07:47:58.549Z,59.61
2019-03-25T07:53:14.343Z,59.92
2019-03-25T07:58:23.715Z,61.44
2019-03-25T08:03:33.515Z,61.88
2019-03-25T08:08:45.969Z,60.77
2019-03-25T08:13:56.358Z,61.57
2019-03-25T08:19:04.803Z,60.62
2019-03-25T08:24:13.387Z,59.51
2019-03-25T08:29:22.074Z,59.64
2019-03-25T08:34:31.366Z,61.50
2019-03-25T08:39:39.528Z,64.54
2019-03-25T08:44:48.609Z,67.08
2019-03-25T08:49:59.350Z,66.45
2019-03-25T08:55:08.616Z,66.54
2019-03-25T09:00:18.365Z,67.09
2019-03-25T09:05:26.466Z,66.45
2019-03-25T09:10:34.212Z,67.14
2019-03-25T09:15:41.870Z,66.69
2019-03-25T09:20:49.989Z,66.21
2019-03-25T09:25:58.424Z,66.11
2019-03-25T09:31:21.300Z,65.24
2019-03-25T09:36:32.275Z,65.20
2019-03-25T09:41:44.024Z,64.76
2019-03-25T09:46:53.371Z,64.96
2019-03-25T09:52:02.654Z,64.63
2019-03-25T09:57:16.371Z,63.30
2019-03-25T10:02:38.124Z,64.03
2019-03-25T10:07:50.195Z,62.37
2019-03-25T10:13:01.527Z,61.59
2019-03-25T10:18:15.568Z,58.65
2019-03-25T10:23:26.798Z,58.72
2019-03-25T10:28:34.954Z,58.33
2019-03-25T10:33:45.803Z,54.14
2019-03-25T10:38:54.404Z,57.77
2019-03-25T10:44:02.307Z,58.25
2019-03-25T10:49:11.793Z,65.41
2019-03-25T10:54:23.313Z,63.80
2019-03-25T10:59:34.267Z,62.35
2019-03-25T11:04:42.431Z,58.25
2019-03-25T11:09:50.838Z,57.53
2019-03-25T11:15:00.295Z,54.78
2019-03-25T11:20:09.140Z,52.44
2019-03-25T11:25:19.008Z,53.15
2019-03-25T11:31:01.328Z,51.07
2019-03-25T11:36:10.947Z,51.84
2019-03-25T11:41:23.690Z,53.46
2019-03-25T11:46:32.292Z,53.25
2019-03-25T11:51:40.425Z,51.11
2019-03-25T11:56:49.829Z,50.25
2019-03-25T12:01:59.763Z,50.00
2019-03-25T12:07:10.409Z,50.50
2019-03-25T12:12:27.001Z,48.55
2019-03-25T12:17:38.050Z,47.23
2019-03-25T12:22:47.185Z,50.28
2019-03-25T12:27:55.940Z,48.87
2019-03-25T12:33:11.925Z,47.89
2019-03-25T12:38:19.884Z,45.83
2019-03-25T12:43:28.214Z,45.26
2019-03-25T12:48:37.615Z,43.86
2019-03-25T12:53:46.530Z,45.46
2019-03-25T12:58:55.855Z,45.70
2019-03-25T13:04:08.106Z,47.23
2019-03-25T13:09:16.335Z,48.00
2019-03-25T13:14:27.270Z,45.58
2019-03-25T13:19:40.185Z,44.11
2019-03-25T13:24:49.667Z,44.26
2019-03-25T13:36:39.468Z,44.40
2019-03-25T13:41:48.647Z,44.51
2019-03-25T13:46:58.061Z,45.52
2019-03-25T13:52:07.079Z,44.56
2019-03-25T13:57:15.661Z,44.76
2019-03-25T14:02:25.127Z,45.10
2019-03-25T14:07:34.505Z,45.21
2019-03-25T14:12:43.498Z,45.09
2019-03-25T14:17:52.702Z,50.52
2019-03-25T14:23:02.150Z,54.61
2019-03-25T14:28:11.533Z,55.91
2019-03-25T14:33:21.236Z,58.03
2019-03-25T14:38:29.504Z,55.69
2019-03-25T14:43:44.652Z,55.45
2019-03-25T14:48:57.228Z,57.59
2019-03-25T14:54:14.135Z,58.06
2019-03-25T14:59:22.431Z,59.45
2019-03-25T15:04:33.656Z,60.11
2019-03-25T15:09:41.743Z,60.26
2019-03-25T15:14:53.873Z,65.12
2019-03-25T15:20:06.021Z,65.79
2019-03-25T15:25:18.073Z,64.63
2019-03-25T15:30:35.409Z,64.63
2019-03-25T15:35:37.864Z,63.65
2019-03-25T15:40:46.218Z,63.88
2019-03-25T15:45:54.570Z,62.10
2019-03-25T15:51:06.091Z,61.81
2019-03-25T15:56:17.714Z,60.77
2019-03-25T16:01:26.288Z,60.18
2019-03-25T16:06:45.826Z,60.72
2019-03-25T16:11:53.649Z,60.68
2019-03-25T16:17:02.665Z,60.81
2019-03-25T16:22:11.523Z,59.68
2019-03-25T16:27:21.158Z,61.29
2019-03-25T16:32:29.203Z,61.49
2019-03-25T16:37:39.211Z,60.84
2019-03-25T16:42:50.556Z,60.82
2019-03-25T16:47:58.685Z,61.42
2019-03-25T16:53:09.291Z,61.19
2019-03-25T16:58:20.305Z,61.43
2019-03-25T17:03:31.149Z,62.25
2019-03-25T17:08:40.789Z,66.25
2019-03-25T17:13:50.270Z,66.25
2019-03-25T17:18:59.394Z,71.64
2019-03-25T17:24:08.573Z,71.04
2019-03-25T17:29:20.920Z,71.40
2019-03-25T17:34:29.103Z,69.97
2019-03-25T17:39:42.597Z,69.36
2019-03-25T17:44:50.777Z,68.72
2019-03-25T17:50:01.109Z,67.52
2019-03-25T17:55:12.544Z,67.10
2019-03-25T18:00:44.931Z,66.90
2019-03-25T18:05:54.353Z,66.20
2019-03-25T18:11:04.189Z,67.25
2019-03-25T18:16:17.044Z,66.24
2019-03-25T18:21:26.448Z,66.24
2019-03-25T18:26:38.797Z,66.17
2019-03-25T18:31:47.236Z,66.56
2019-03-25T18:36:55.704Z,65.61
2019-03-25T18:42:07.491Z,64.55
2019-03-25T18:47:18.970Z,65.38
2019-03-25T18:52:30.895Z,66.13
2019-03-25T18:57:41.342Z,66.03
2019-03-25T19:02:54.845Z,67.31
2019-03-25T19:08:06.822Z,67.98
2019-03-25T19:13:17.111Z,69.53
2019-03-25T19:18:29.682Z,68.24
2019-03-25T19:23:40.437Z,68.52
2019-03-25T19:28:48.797Z,68.38
2019-03-25T19:33:59.703Z,69.72
2019-03-25T19:39:10.877Z,69.72
2019-03-25T19:44:20.445Z,68.13
2019-03-25T19:49:29.090Z,68.88
2019-03-25T19:54:39.880Z,68.88
2019-03-25T19:59:52.649Z,68.89
2019-03-25T20:05:01.915Z,67.71
2019-03-25T20:10:24.067Z,67.71
2019-03-25T20:15:46.089Z,68.20
2019-03-25T20:20:47.333Z,68.62
2019-03-25T20:25:59.641Z,68.62
2019-03-25T20:31:09.017Z,67.35
2019-03-25T20:36:21.591Z,69.85
2019-03-25T20:41:32.403Z,68.57
2019-03-25T20:46:42.565Z,68.57
2019-03-25T20:51:55.760Z,68.90
2019-03-25T20:57:03.680Z,68.85
2019-03-25T21:02:17.350Z,67.93
2019-03-25T21:07:26.422Z,68.41
2019-03-25T21:12:35.022Z,69.05
2019-03-25T21:17:44.510Z,70.43
2019-03-25T21:22:55.257Z,69.20
2019-03-25T21:28:04.385Z,69.20
2019-03-25T21:33:13.317Z,67.98
2019-03-25T21:38:21.577Z,66.77
2019-03-25T21:43:29.375Z,67.79
2019-03-25T21:48:39.887Z,68.75
2019-03-25T21:53:47.390Z,68.16
2019-03-25T21:58:55.355Z,68.08
2019-03-25T22:04:03.924Z,68.37
2019-03-25T22:09:12.364Z,68.96
2019-03-25T22:14:20.625Z,67.47
2019-03-25T22:19:29.287Z,67.47
2019-03-25T22:24:40.256Z,67.88
2019-03-25T22:29:50.605Z,68.37
2019-03-25T22:34:58.738Z,68.22
2019-03-25T22:40:07.541Z,70.27
2019-03-25T22:45:17.936Z,69.52
2019-03-25T22:50:35.857Z,68.17
2019-03-25T22:55:46.951Z,68.37
2019-03-25T23:00:55.408Z,68.79
2019-03-25T23:06:05.798Z,70.46
2019-03-25T23:11:14.864Z,70.72
2019-03-25T23:16:22.991Z,69.50
2019-03-25T23:21:32.621Z,69.59
2019-03-25T23:26:40.761Z,69.64
2019-03-25T23:31:49.284Z,69.64
2019-03-25T23:36:58.126Z,69.71
2019-03-25T23:42:08.470Z,69.20
2019-03-25T23:53:39.908Z,70.10
2019-03-25T23:58:48.069Z,69.80
